KCVN/CVN METAR and TAF weather

Enter ICAO airport designator
Station Type Date Time Source
KCVN METAR 2019/08/24 08:56 UTC NOAA

KCVN 240856Z AUTO 06004KT 10SM CLR 17/15 A3010 RMK AO2 SLP150 T01670150 51016


Station Type Date Time Source
KCVN Decoded METAR 2019/08/24 08:56 UTC NOAA

Station name not available
Aug 24, 2019 - 04:56 AM EDT / 2019.08.24 0856 UTC
Wind: from the ENE (060 degrees) at 5 MPH (4 KT):0
Visibility: 10 mile(s):0
Sky conditions: clear
Temperature: 62.1 F (16.7 C)
Dew Point: 59.0 F (15.0 C)
Relative Humidity: 89%
Pressure (altimeter): 30.1 in. Hg (1019 hPa)
Pressure tendency: 0.05 inches (1.6 hPa) higher than three hours ago
ob: KCVN 240856Z AUTO 06004KT 10SM CLR 17/15 A3010 RMK AO2 SLP150 T01670150 51016
cycle: 9

Station Type Date Time Source
KCVN TAF UTC NOAA

Error!

Example: see airport list